<?xml version="1.0" encoding="UTF-8" standalone="no" ?>
<gpx xmlns="http://www.topografix.com/GPX/1/1" xmlns:xsi="http://www.w3.org/2001/XMLSchema-instance" xsi:schemaLocation="http://www.topografix.com/GPX/1/1 http://www.topografix.com/GPX/1/1/gpx.xsd" version="1.1" creator="VisuGPX - https://www.visugpx.com">
  <metadata>
    <name>Granges sur Baume</name>
    <desc><![CDATA[Toute petite balade sur le premier plateau jurassien. Très beau belvédère avec vue sur Baume les Messieurs. Voir aussi la fromagerie.]]></desc>
  </metadata>
  <trk>
    <name><![CDATA[Granges sur Baume_1]]></name>
    <trkseg>
      <trkpt lat="46.71355" lon="5.64484">
        <ele>490</ele>
        <time>2011-06-10T16:00:04</time>
      </trkpt>
      <trkpt lat="46.71355" lon="5.64484">
        <ele>490</ele>
        <time>2011-06-10T16:03:21</time>
      </trkpt>
      <trkpt lat="46.71376" lon="5.6448">
        <ele>493</ele>
        <time>2011-06-10T16:03:28</time>
      </trkpt>
      <trkpt lat="46.71384" lon="5.64466">
        <ele>494</ele>
        <time>2011-06-10T16:03:41</time>
      </trkpt>
      <trkpt lat="46.71391" lon="5.64452">
        <ele>495</ele>
        <time>2011-06-10T16:03:52</time>
      </trkpt>
      <trkpt lat="46.71399" lon="5.6444">
        <ele>496</ele>
        <time>2011-06-10T16:04:04</time>
      </trkpt>
      <trkpt lat="46.71407" lon="5.64428">
        <ele>498</ele>
        <time>2011-06-10T16:04:16</time>
      </trkpt>
      <trkpt lat="46.71419" lon="5.64419">
        <ele>500</ele>
        <time>2011-06-10T16:04:27</time>
      </trkpt>
      <trkpt lat="46.7143" lon="5.64409">
        <ele>500</ele>
        <time>2011-06-10T16:04:37</time>
      </trkpt>
      <trkpt lat="46.71444" lon="5.64403">
        <ele>499</ele>
        <time>2011-06-10T16:04:51</time>
      </trkpt>
      <trkpt lat="46.7146" lon="5.64398">
        <ele>498</ele>
        <time>2011-06-10T16:05:04</time>
      </trkpt>
      <trkpt lat="46.71472" lon="5.64397">
        <ele>498</ele>
        <time>2011-06-10T16:05:22</time>
      </trkpt>
      <trkpt lat="46.71488" lon="5.64395">
        <ele>498</ele>
        <time>2011-06-10T16:05:39</time>
      </trkpt>
      <trkpt lat="46.71504" lon="5.64399">
        <ele>496</ele>
        <time>2011-06-10T16:05:51</time>
      </trkpt>
      <trkpt lat="46.71515" lon="5.64404">
        <ele>496</ele>
        <time>2011-06-10T16:06:11</time>
      </trkpt>
      <trkpt lat="46.71532" lon="5.64413">
        <ele>496</ele>
        <time>2011-06-10T16:06:33</time>
      </trkpt>
      <trkpt lat="46.71543" lon="5.6442">
        <ele>496</ele>
        <time>2011-06-10T16:06:46</time>
      </trkpt>
      <trkpt lat="46.71553" lon="5.6443">
        <ele>495</ele>
        <time>2011-06-10T16:06:57</time>
      </trkpt>
      <trkpt lat="46.71566" lon="5.64439">
        <ele>495</ele>
        <time>2011-06-10T16:07:08</time>
      </trkpt>
      <trkpt lat="46.7158" lon="5.64446">
        <ele>495</ele>
        <time>2011-06-10T16:07:20</time>
      </trkpt>
      <trkpt lat="46.71593" lon="5.64454">
        <ele>495</ele>
        <time>2011-06-10T16:07:32</time>
      </trkpt>
      <trkpt lat="46.71607" lon="5.6446">
        <ele>494</ele>
        <time>2011-06-10T16:07:44</time>
      </trkpt>
      <trkpt lat="46.7162" lon="5.64467">
        <ele>494</ele>
        <time>2011-06-10T16:07:56</time>
      </trkpt>
      <trkpt lat="46.71633" lon="5.64474">
        <ele>494</ele>
        <time>2011-06-10T16:08:08</time>
      </trkpt>
      <trkpt lat="46.71645" lon="5.64483">
        <ele>494</ele>
        <time>2011-06-10T16:08:21</time>
      </trkpt>
      <trkpt lat="46.7166" lon="5.64487">
        <ele>494</ele>
        <time>2011-06-10T16:08:33</time>
      </trkpt>
      <trkpt lat="46.71675" lon="5.6449">
        <ele>494</ele>
        <time>2011-06-10T16:08:45</time>
      </trkpt>
      <trkpt lat="46.7169" lon="5.6449">
        <ele>494</ele>
        <time>2011-06-10T16:08:57</time>
      </trkpt>
      <trkpt lat="46.71706" lon="5.64487">
        <ele>494</ele>
        <time>2011-06-10T16:09:04</time>
      </trkpt>
      <trkpt lat="46.71706" lon="5.64487">
        <ele>494</ele>
        <time>2011-06-10T16:09:31</time>
      </trkpt>
      <trkpt lat="46.71719" lon="5.64485">
        <ele>494</ele>
        <time>2011-06-10T16:09:38</time>
      </trkpt>
      <trkpt lat="46.71732" lon="5.64481">
        <ele>494</ele>
        <time>2011-06-10T16:09:56</time>
      </trkpt>
      <trkpt lat="46.71749" lon="5.64478">
        <ele>494</ele>
        <time>2011-06-10T16:10:15</time>
      </trkpt>
      <trkpt lat="46.71764" lon="5.64478">
        <ele>495</ele>
        <time>2011-06-10T16:10:27</time>
      </trkpt>
      <trkpt lat="46.71777" lon="5.64485">
        <ele>495</ele>
        <time>2011-06-10T16:10:34</time>
      </trkpt>
      <trkpt lat="46.71777" lon="5.64485">
        <ele>495</ele>
        <time>2011-06-10T16:11:23</time>
      </trkpt>
      <trkpt lat="46.71787" lon="5.64494">
        <ele>495</ele>
        <time>2011-06-10T16:11:31</time>
      </trkpt>
      <trkpt lat="46.71797" lon="5.64507">
        <ele>493</ele>
        <time>2011-06-10T16:11:47</time>
      </trkpt>
      <trkpt lat="46.7181" lon="5.64515">
        <ele>494</ele>
        <time>2011-06-10T16:12:01</time>
      </trkpt>
      <trkpt lat="46.71822" lon="5.64524">
        <ele>494</ele>
        <time>2011-06-10T16:12:12</time>
      </trkpt>
      <trkpt lat="46.71836" lon="5.64532">
        <ele>493</ele>
        <time>2011-06-10T16:12:24</time>
      </trkpt>
      <trkpt lat="46.71851" lon="5.64534">
        <ele>493</ele>
        <time>2011-06-10T16:12:36</time>
      </trkpt>
      <trkpt lat="46.71866" lon="5.64531">
        <ele>492</ele>
        <time>2011-06-10T16:12:50</time>
      </trkpt>
      <trkpt lat="46.71881" lon="5.64527">
        <ele>492</ele>
        <time>2011-06-10T16:13:04</time>
      </trkpt>
      <trkpt lat="46.71894" lon="5.64524">
        <ele>492</ele>
        <time>2011-06-10T16:13:16</time>
      </trkpt>
      <trkpt lat="46.71909" lon="5.64518">
        <ele>492</ele>
        <time>2011-06-10T16:13:26</time>
      </trkpt>
      <trkpt lat="46.71923" lon="5.64517">
        <ele>491</ele>
        <time>2011-06-10T16:13:37</time>
      </trkpt>
      <trkpt lat="46.71939" lon="5.64519">
        <ele>491</ele>
        <time>2011-06-10T16:13:50</time>
      </trkpt>
      <trkpt lat="46.71951" lon="5.64526">
        <ele>490</ele>
        <time>2011-06-10T16:14:02</time>
      </trkpt>
      <trkpt lat="46.71964" lon="5.64533">
        <ele>490</ele>
        <time>2011-06-10T16:14:13</time>
      </trkpt>
      <trkpt lat="46.71977" lon="5.64541">
        <ele>490</ele>
        <time>2011-06-10T16:14:24</time>
      </trkpt>
      <trkpt lat="46.71992" lon="5.64546">
        <ele>490</ele>
        <time>2011-06-10T16:14:37</time>
      </trkpt>
      <trkpt lat="46.72007" lon="5.64545">
        <ele>488</ele>
        <time>2011-06-10T16:14:50</time>
      </trkpt>
      <trkpt lat="46.72022" lon="5.64544">
        <ele>488</ele>
        <time>2011-06-10T16:15:03</time>
      </trkpt>
      <trkpt lat="46.72037" lon="5.64545">
        <ele>488</ele>
        <time>2011-06-10T16:15:15</time>
      </trkpt>
      <trkpt lat="46.72052" lon="5.64543">
        <ele>488</ele>
        <time>2011-06-10T16:15:28</time>
      </trkpt>
      <trkpt lat="46.72067" lon="5.64541">
        <ele>488</ele>
        <time>2011-06-10T16:15:42</time>
      </trkpt>
      <trkpt lat="46.7208" lon="5.64541">
        <ele>488</ele>
        <time>2011-06-10T16:15:54</time>
      </trkpt>
      <trkpt lat="46.72096" lon="5.64547">
        <ele>488</ele>
        <time>2011-06-10T16:16:04</time>
      </trkpt>
      <trkpt lat="46.72111" lon="5.6455">
        <ele>488</ele>
        <time>2011-06-10T16:16:14</time>
      </trkpt>
      <trkpt lat="46.72125" lon="5.64551">
        <ele>488</ele>
        <time>2011-06-10T16:16:25</time>
      </trkpt>
      <trkpt lat="46.72141" lon="5.64552">
        <ele>488</ele>
        <time>2011-06-10T16:16:37</time>
      </trkpt>
      <trkpt lat="46.72156" lon="5.64552">
        <ele>488</ele>
        <time>2011-06-10T16:16:49</time>
      </trkpt>
      <trkpt lat="46.72166" lon="5.64561">
        <ele>488</ele>
        <time>2011-06-10T16:16:59</time>
      </trkpt>
      <trkpt lat="46.72172" lon="5.64573">
        <ele>488</ele>
        <time>2011-06-10T16:17:31</time>
      </trkpt>
      <trkpt lat="46.72172" lon="5.64546">
        <ele>487</ele>
        <time>2011-06-10T16:18:23</time>
      </trkpt>
      <trkpt lat="46.72193" lon="5.6455">
        <ele>487</ele>
        <time>2011-06-10T16:18:55</time>
      </trkpt>
      <trkpt lat="46.72207" lon="5.64552">
        <ele>486</ele>
        <time>2011-06-10T16:19:07</time>
      </trkpt>
      <trkpt lat="46.72223" lon="5.64553">
        <ele>486</ele>
        <time>2011-06-10T16:19:19</time>
      </trkpt>
      <trkpt lat="46.72238" lon="5.64556">
        <ele>486</ele>
        <time>2011-06-10T16:19:31</time>
      </trkpt>
      <trkpt lat="46.72253" lon="5.64557">
        <ele>483</ele>
        <time>2011-06-10T16:19:43</time>
      </trkpt>
      <trkpt lat="46.72267" lon="5.64558">
        <ele>483</ele>
        <time>2011-06-10T16:19:55</time>
      </trkpt>
      <trkpt lat="46.72282" lon="5.64556">
        <ele>483</ele>
        <time>2011-06-10T16:20:07</time>
      </trkpt>
      <trkpt lat="46.72295" lon="5.6455">
        <ele>483</ele>
        <time>2011-06-10T16:20:18</time>
      </trkpt>
      <trkpt lat="46.72309" lon="5.64541">
        <ele>482</ele>
        <time>2011-06-10T16:20:29</time>
      </trkpt>
      <trkpt lat="46.72321" lon="5.64533">
        <ele>482</ele>
        <time>2011-06-10T16:20:41</time>
      </trkpt>
      <trkpt lat="46.72335" lon="5.64527">
        <ele>480</ele>
        <time>2011-06-10T16:20:53</time>
      </trkpt>
      <trkpt lat="46.72349" lon="5.64523">
        <ele>480</ele>
        <time>2011-06-10T16:21:04</time>
      </trkpt>
      <trkpt lat="46.72363" lon="5.64522">
        <ele>480</ele>
        <time>2011-06-10T16:21:17</time>
      </trkpt>
      <trkpt lat="46.72377" lon="5.64527">
        <ele>480</ele>
        <time>2011-06-10T16:21:28</time>
      </trkpt>
      <trkpt lat="46.72388" lon="5.64538">
        <ele>480</ele>
        <time>2011-06-10T16:21:40</time>
      </trkpt>
      <trkpt lat="46.72395" lon="5.64551">
        <ele>480</ele>
        <time>2011-06-10T16:21:50</time>
      </trkpt>
      <trkpt lat="46.72401" lon="5.64565">
        <ele>480</ele>
        <time>2011-06-10T16:21:59</time>
      </trkpt>
      <trkpt lat="46.7241" lon="5.64579">
        <ele>479</ele>
        <time>2011-06-10T16:22:14</time>
      </trkpt>
      <trkpt lat="46.72424" lon="5.64585">
        <ele>480</ele>
        <time>2011-06-10T16:22:31</time>
      </trkpt>
      <trkpt lat="46.72438" lon="5.64585">
        <ele>480</ele>
        <time>2011-06-10T16:22:43</time>
      </trkpt>
      <trkpt lat="46.72452" lon="5.64579">
        <ele>481</ele>
        <time>2011-06-10T16:22:55</time>
      </trkpt>
      <trkpt lat="46.72466" lon="5.64572">
        <ele>481</ele>
        <time>2011-06-10T16:23:07</time>
      </trkpt>
      <trkpt lat="46.72479" lon="5.64568">
        <ele>481</ele>
        <time>2011-06-10T16:23:20</time>
      </trkpt>
      <trkpt lat="46.72493" lon="5.64564">
        <ele>482</ele>
        <time>2011-06-10T16:23:33</time>
      </trkpt>
      <trkpt lat="46.72509" lon="5.64561">
        <ele>482</ele>
        <time>2011-06-10T16:23:45</time>
      </trkpt>
      <trkpt lat="46.72521" lon="5.64568">
        <ele>482</ele>
        <time>2011-06-10T16:23:59</time>
      </trkpt>
      <trkpt lat="46.72531" lon="5.64579">
        <ele>481</ele>
        <time>2011-06-10T16:24:15</time>
      </trkpt>
      <trkpt lat="46.72538" lon="5.64593">
        <ele>480</ele>
        <time>2011-06-10T16:24:26</time>
      </trkpt>
      <trkpt lat="46.72544" lon="5.64607">
        <ele>480</ele>
        <time>2011-06-10T16:24:37</time>
      </trkpt>
      <trkpt lat="46.7255" lon="5.64621">
        <ele>480</ele>
        <time>2011-06-10T16:24:44</time>
      </trkpt>
      <trkpt lat="46.7255" lon="5.64621">
        <ele>480</ele>
        <time>2011-06-10T16:25:15</time>
      </trkpt>
      <trkpt lat="46.72558" lon="5.64633">
        <ele>480</ele>
        <time>2011-06-10T16:25:22</time>
      </trkpt>
      <trkpt lat="46.72563" lon="5.64646">
        <ele>480</ele>
        <time>2011-06-10T16:25:31</time>
      </trkpt>
      <trkpt lat="46.72567" lon="5.6466">
        <ele>479</ele>
        <time>2011-06-10T16:25:39</time>
      </trkpt>
      <trkpt lat="46.72572" lon="5.64679">
        <ele>481</ele>
        <time>2011-06-10T16:25:45</time>
      </trkpt>
      <trkpt lat="46.72572" lon="5.64679">
        <ele>481</ele>
        <time>2011-06-10T16:26:06</time>
      </trkpt>
      <trkpt lat="46.72575" lon="5.64691">
        <ele>482</ele>
        <time>2011-06-10T16:26:12</time>
      </trkpt>
      <trkpt lat="46.72577" lon="5.64704">
        <ele>483</ele>
        <time>2011-06-10T16:26:19</time>
      </trkpt>
      <trkpt lat="46.72577" lon="5.64704">
        <ele>483</ele>
        <time>2011-06-10T16:26:43</time>
      </trkpt>
      <trkpt lat="46.72581" lon="5.6472">
        <ele>485</ele>
        <time>2011-06-10T16:26:49</time>
      </trkpt>
      <trkpt lat="46.72586" lon="5.64736">
        <ele>484</ele>
        <time>2011-06-10T16:27:01</time>
      </trkpt>
      <trkpt lat="46.72592" lon="5.64748">
        <ele>485</ele>
        <time>2011-06-10T16:27:14</time>
      </trkpt>
      <trkpt lat="46.72597" lon="5.64763">
        <ele>487</ele>
        <time>2011-06-10T16:27:25</time>
      </trkpt>
      <trkpt lat="46.72601" lon="5.6478">
        <ele>487</ele>
        <time>2011-06-10T16:27:33</time>
      </trkpt>
      <trkpt lat="46.72603" lon="5.64794">
        <ele>488</ele>
        <time>2011-06-10T16:27:41</time>
      </trkpt>
      <trkpt lat="46.72598" lon="5.64812">
        <ele>489</ele>
        <time>2011-06-10T16:27:58</time>
      </trkpt>
      <trkpt lat="46.72585" lon="5.64814">
        <ele>490</ele>
        <time>2011-06-10T16:28:20</time>
      </trkpt>
      <trkpt lat="46.7257" lon="5.64817">
        <ele>492</ele>
        <time>2011-06-10T16:28:36</time>
      </trkpt>
      <trkpt lat="46.72557" lon="5.64822">
        <ele>492</ele>
        <time>2011-06-10T16:28:49</time>
      </trkpt>
      <trkpt lat="46.72545" lon="5.64827">
        <ele>492</ele>
        <time>2011-06-10T16:29:00</time>
      </trkpt>
      <trkpt lat="46.72528" lon="5.64834">
        <ele>493</ele>
        <time>2011-06-10T16:29:12</time>
      </trkpt>
      <trkpt lat="46.72515" lon="5.64839">
        <ele>494</ele>
        <time>2011-06-10T16:29:22</time>
      </trkpt>
      <trkpt lat="46.72502" lon="5.6485">
        <ele>494</ele>
        <time>2011-06-10T16:29:32</time>
      </trkpt>
      <trkpt lat="46.72491" lon="5.64861">
        <ele>493</ele>
        <time>2011-06-10T16:29:42</time>
      </trkpt>
      <trkpt lat="46.72481" lon="5.64873">
        <ele>493</ele>
        <time>2011-06-10T16:29:52</time>
      </trkpt>
      <trkpt lat="46.7247" lon="5.64883">
        <ele>493</ele>
        <time>2011-06-10T16:30:02</time>
      </trkpt>
      <trkpt lat="46.72459" lon="5.64893">
        <ele>493</ele>
        <time>2011-06-10T16:30:13</time>
      </trkpt>
      <trkpt lat="46.72449" lon="5.64904">
        <ele>493</ele>
        <time>2011-06-10T16:30:24</time>
      </trkpt>
      <trkpt lat="46.72442" lon="5.64917">
        <ele>493</ele>
        <time>2011-06-10T16:30:34</time>
      </trkpt>
      <trkpt lat="46.72434" lon="5.64931">
        <ele>493</ele>
        <time>2011-06-10T16:30:44</time>
      </trkpt>
      <trkpt lat="46.72426" lon="5.64944">
        <ele>493</ele>
        <time>2011-06-10T16:30:54</time>
      </trkpt>
      <trkpt lat="46.72416" lon="5.64954">
        <ele>493</ele>
        <time>2011-06-10T16:31:05</time>
      </trkpt>
      <trkpt lat="46.72403" lon="5.64957">
        <ele>493</ele>
        <time>2011-06-10T16:31:19</time>
      </trkpt>
      <trkpt lat="46.72389" lon="5.64949">
        <ele>493</ele>
        <time>2011-06-10T16:31:31</time>
      </trkpt>
      <trkpt lat="46.72374" lon="5.64943">
        <ele>493</ele>
        <time>2011-06-10T16:31:40</time>
      </trkpt>
      <trkpt lat="46.7236" lon="5.64939">
        <ele>493</ele>
        <time>2011-06-10T16:31:50</time>
      </trkpt>
      <trkpt lat="46.72343" lon="5.64934">
        <ele>493</ele>
        <time>2011-06-10T16:32:05</time>
      </trkpt>
      <trkpt lat="46.72335" lon="5.64929">
        <ele>492</ele>
        <time>2011-06-10T16:32:26</time>
      </trkpt>
      <trkpt lat="46.72317" lon="5.64924">
        <ele>493</ele>
        <time>2011-06-10T16:32:43</time>
      </trkpt>
      <trkpt lat="46.72303" lon="5.64921">
        <ele>493</ele>
        <time>2011-06-10T16:32:53</time>
      </trkpt>
      <trkpt lat="46.72291" lon="5.64913">
        <ele>493</ele>
        <time>2011-06-10T16:33:05</time>
      </trkpt>
      <trkpt lat="46.72284" lon="5.64899">
        <ele>493</ele>
        <time>2011-06-10T16:33:18</time>
      </trkpt>
      <trkpt lat="46.72275" lon="5.64888">
        <ele>493</ele>
        <time>2011-06-10T16:33:29</time>
      </trkpt>
      <trkpt lat="46.72266" lon="5.64875">
        <ele>493</ele>
        <time>2011-06-10T16:33:38</time>
      </trkpt>
      <trkpt lat="46.7225" lon="5.64872">
        <ele>493</ele>
        <time>2011-06-10T16:33:49</time>
      </trkpt>
      <trkpt lat="46.72237" lon="5.64864">
        <ele>494</ele>
        <time>2011-06-10T16:34:00</time>
      </trkpt>
      <trkpt lat="46.72229" lon="5.64861">
        <ele>494</ele>
        <time>2011-06-10T16:34:23</time>
      </trkpt>
      <trkpt lat="46.72236" lon="5.64882">
        <ele>495</ele>
        <time>2011-06-10T16:34:45</time>
      </trkpt>
      <trkpt lat="46.72238" lon="5.64898">
        <ele>495</ele>
        <time>2011-06-10T16:34:54</time>
      </trkpt>
      <trkpt lat="46.72239" lon="5.64912">
        <ele>495</ele>
        <time>2011-06-10T16:35:02</time>
      </trkpt>
      <trkpt lat="46.7224" lon="5.64927">
        <ele>495</ele>
        <time>2011-06-10T16:35:10</time>
      </trkpt>
      <trkpt lat="46.7224" lon="5.64943">
        <ele>495</ele>
        <time>2011-06-10T16:35:18</time>
      </trkpt>
      <trkpt lat="46.7224" lon="5.64958">
        <ele>495</ele>
        <time>2011-06-10T16:35:27</time>
      </trkpt>
      <trkpt lat="46.7224" lon="5.64974">
        <ele>495</ele>
        <time>2011-06-10T16:35:36</time>
      </trkpt>
      <trkpt lat="46.72241" lon="5.6499">
        <ele>496</ele>
        <time>2011-06-10T16:35:45</time>
      </trkpt>
      <trkpt lat="46.72242" lon="5.65005">
        <ele>496</ele>
        <time>2011-06-10T16:35:53</time>
      </trkpt>
      <trkpt lat="46.72243" lon="5.6502">
        <ele>496</ele>
        <time>2011-06-10T16:36:01</time>
      </trkpt>
      <trkpt lat="46.72244" lon="5.65035">
        <ele>496</ele>
        <time>2011-06-10T16:36:10</time>
      </trkpt>
      <trkpt lat="46.72246" lon="5.6505">
        <ele>496</ele>
        <time>2011-06-10T16:36:18</time>
      </trkpt>
      <trkpt lat="46.72251" lon="5.65067">
        <ele>496</ele>
        <time>2011-06-10T16:36:31</time>
      </trkpt>
      <trkpt lat="46.72256" lon="5.65079">
        <ele>496</ele>
        <time>2011-06-10T16:36:45</time>
      </trkpt>
      <trkpt lat="46.72262" lon="5.65093">
        <ele>496</ele>
        <time>2011-06-10T16:36:55</time>
      </trkpt>
      <trkpt lat="46.72269" lon="5.65107">
        <ele>496</ele>
        <time>2011-06-10T16:37:05</time>
      </trkpt>
      <trkpt lat="46.72275" lon="5.65121">
        <ele>496</ele>
        <time>2011-06-10T16:37:16</time>
      </trkpt>
      <trkpt lat="46.72281" lon="5.65135">
        <ele>496</ele>
        <time>2011-06-10T16:37:26</time>
      </trkpt>
      <trkpt lat="46.72287" lon="5.65148">
        <ele>496</ele>
        <time>2011-06-10T16:37:35</time>
      </trkpt>
      <trkpt lat="46.72292" lon="5.65162">
        <ele>496</ele>
        <time>2011-06-10T16:37:44</time>
      </trkpt>
      <trkpt lat="46.72294" lon="5.65177">
        <ele>495</ele>
        <time>2011-06-10T16:37:52</time>
      </trkpt>
      <trkpt lat="46.72296" lon="5.65192">
        <ele>495</ele>
        <time>2011-06-10T16:38:00</time>
      </trkpt>
      <trkpt lat="46.72296" lon="5.65207">
        <ele>495</ele>
        <time>2011-06-10T16:38:09</time>
      </trkpt>
      <trkpt lat="46.72298" lon="5.65222">
        <ele>494</ele>
        <time>2011-06-10T16:38:18</time>
      </trkpt>
      <trkpt lat="46.72301" lon="5.65237">
        <ele>494</ele>
        <time>2011-06-10T16:38:26</time>
      </trkpt>
      <trkpt lat="46.72304" lon="5.65252">
        <ele>494</ele>
        <time>2011-06-10T16:38:34</time>
      </trkpt>
      <trkpt lat="46.72307" lon="5.65267">
        <ele>494</ele>
        <time>2011-06-10T16:38:42</time>
      </trkpt>
      <trkpt lat="46.72311" lon="5.65282">
        <ele>494</ele>
        <time>2011-06-10T16:38:50</time>
      </trkpt>
      <trkpt lat="46.72314" lon="5.65296">
        <ele>494</ele>
        <time>2011-06-10T16:38:59</time>
      </trkpt>
      <trkpt lat="46.7232" lon="5.65312">
        <ele>494</ele>
        <time>2011-06-10T16:39:05</time>
      </trkpt>
      <trkpt lat="46.7232" lon="5.65312">
        <ele>494</ele>
        <time>2011-06-10T16:39:26</time>
      </trkpt>
      <trkpt lat="46.72327" lon="5.65326">
        <ele>495</ele>
        <time>2011-06-10T16:39:28</time>
      </trkpt>
      <trkpt lat="46.72327" lon="5.65326">
        <ele>495</ele>
        <time>2011-06-10T16:40:43</time>
      </trkpt>
      <trkpt lat="46.72334" lon="5.65337">
        <ele>495</ele>
        <time>2011-06-10T16:40:48</time>
      </trkpt>
      <trkpt lat="46.72345" lon="5.65347">
        <ele>495</ele>
        <time>2011-06-10T16:40:58</time>
      </trkpt>
      <trkpt lat="46.72357" lon="5.65355">
        <ele>495</ele>
        <time>2011-06-10T16:41:09</time>
      </trkpt>
      <trkpt lat="46.72367" lon="5.65367">
        <ele>495</ele>
        <time>2011-06-10T16:41:19</time>
      </trkpt>
      <trkpt lat="46.72376" lon="5.65379">
        <ele>496</ele>
        <time>2011-06-10T16:41:30</time>
      </trkpt>
      <trkpt lat="46.72384" lon="5.65393">
        <ele>496</ele>
        <time>2011-06-10T16:41:41</time>
      </trkpt>
      <trkpt lat="46.72391" lon="5.65405">
        <ele>496</ele>
        <time>2011-06-10T16:41:53</time>
      </trkpt>
      <trkpt lat="46.72399" lon="5.65418">
        <ele>496</ele>
        <time>2011-06-10T16:42:04</time>
      </trkpt>
      <trkpt lat="46.72407" lon="5.65431">
        <ele>496</ele>
        <time>2011-06-10T16:42:16</time>
      </trkpt>
      <trkpt lat="46.72413" lon="5.65443">
        <ele>496</ele>
        <time>2011-06-10T16:42:28</time>
      </trkpt>
      <trkpt lat="46.72419" lon="5.65461">
        <ele>497</ele>
        <time>2011-06-10T16:42:40</time>
      </trkpt>
      <trkpt lat="46.72422" lon="5.6547">
        <ele>498</ele>
        <time>2011-06-10T16:42:55</time>
      </trkpt>
      <trkpt lat="46.72425" lon="5.65487">
        <ele>497</ele>
        <time>2011-06-10T16:43:06</time>
      </trkpt>
      <trkpt lat="46.72428" lon="5.65502">
        <ele>497</ele>
        <time>2011-06-10T16:43:16</time>
      </trkpt>
      <trkpt lat="46.72433" lon="5.65518">
        <ele>498</ele>
        <time>2011-06-10T16:43:25</time>
      </trkpt>
      <trkpt lat="46.72437" lon="5.65532">
        <ele>498</ele>
        <time>2011-06-10T16:43:34</time>
      </trkpt>
      <trkpt lat="46.72441" lon="5.65546">
        <ele>498</ele>
        <time>2011-06-10T16:43:44</time>
      </trkpt>
      <trkpt lat="46.72447" lon="5.6556">
        <ele>498</ele>
        <time>2011-06-10T16:43:54</time>
      </trkpt>
      <trkpt lat="46.7245" lon="5.65574">
        <ele>498</ele>
        <time>2011-06-10T16:44:12</time>
      </trkpt>
      <trkpt lat="46.72461" lon="5.65586">
        <ele>498</ele>
        <time>2011-06-10T16:44:31</time>
      </trkpt>
      <trkpt lat="46.72472" lon="5.65596">
        <ele>498</ele>
        <time>2011-06-10T16:44:43</time>
      </trkpt>
      <trkpt lat="46.72483" lon="5.65605">
        <ele>498</ele>
        <time>2011-06-10T16:44:55</time>
      </trkpt>
      <trkpt lat="46.72492" lon="5.65618">
        <ele>498</ele>
        <time>2011-06-10T16:45:06</time>
      </trkpt>
      <trkpt lat="46.72495" lon="5.65633">
        <ele>498</ele>
        <time>2011-06-10T16:45:15</time>
      </trkpt>
      <trkpt lat="46.72497" lon="5.65649">
        <ele>498</ele>
        <time>2011-06-10T16:45:23</time>
      </trkpt>
      <trkpt lat="46.72498" lon="5.65664">
        <ele>498</ele>
        <time>2011-06-10T16:45:31</time>
      </trkpt>
      <trkpt lat="46.725" lon="5.65679">
        <ele>498</ele>
        <time>2011-06-10T16:45:39</time>
      </trkpt>
      <trkpt lat="46.72501" lon="5.65694">
        <ele>498</ele>
        <time>2011-06-10T16:45:47</time>
      </trkpt>
      <trkpt lat="46.725" lon="5.65711">
        <ele>498</ele>
        <time>2011-06-10T16:45:53</time>
      </trkpt>
      <trkpt lat="46.725" lon="5.65711">
        <ele>498</ele>
        <time>2011-06-10T16:46:07</time>
      </trkpt>
      <trkpt lat="46.72501" lon="5.65723">
        <ele>498</ele>
        <time>2011-06-10T16:46:13</time>
      </trkpt>
      <trkpt lat="46.72504" lon="5.65738">
        <ele>497</ele>
        <time>2011-06-10T16:46:23</time>
      </trkpt>
      <trkpt lat="46.7251" lon="5.65751">
        <ele>497</ele>
        <time>2011-06-10T16:46:33</time>
      </trkpt>
      <trkpt lat="46.72514" lon="5.65769">
        <ele>497</ele>
        <time>2011-06-10T16:46:43</time>
      </trkpt>
      <trkpt lat="46.72513" lon="5.65785">
        <ele>496</ele>
        <time>2011-06-10T16:46:50</time>
      </trkpt>
      <trkpt lat="46.72513" lon="5.658">
        <ele>496</ele>
        <time>2011-06-10T16:46:58</time>
      </trkpt>
      <trkpt lat="46.7251" lon="5.65815">
        <ele>496</ele>
        <time>2011-06-10T16:47:07</time>
      </trkpt>
      <trkpt lat="46.72509" lon="5.65831">
        <ele>496</ele>
        <time>2011-06-10T16:47:16</time>
      </trkpt>
      <trkpt lat="46.72509" lon="5.65845">
        <ele>495</ele>
        <time>2011-06-10T16:47:22</time>
      </trkpt>
      <trkpt lat="46.72509" lon="5.65845">
        <ele>495</ele>
        <time>2011-06-10T16:48:13</time>
      </trkpt>
      <trkpt lat="46.72507" lon="5.6586">
        <ele>495</ele>
        <time>2011-06-10T16:48:18</time>
      </trkpt>
      <trkpt lat="46.72506" lon="5.65876">
        <ele>495</ele>
        <time>2011-06-10T16:48:28</time>
      </trkpt>
      <trkpt lat="46.72507" lon="5.65891">
        <ele>495</ele>
        <time>2011-06-10T16:48:38</time>
      </trkpt>
      <trkpt lat="46.72509" lon="5.65905">
        <ele>495</ele>
        <time>2011-06-10T16:48:44</time>
      </trkpt>
      <trkpt lat="46.72509" lon="5.65905">
        <ele>495</ele>
        <time>2011-06-10T16:50:18</time>
      </trkpt>
      <trkpt lat="46.72509" lon="5.6592">
        <ele>495</ele>
        <time>2011-06-10T16:50:26</time>
      </trkpt>
      <trkpt lat="46.7251" lon="5.65934">
        <ele>495</ele>
        <time>2011-06-10T16:50:41</time>
      </trkpt>
      <trkpt lat="46.7251" lon="5.65951">
        <ele>495</ele>
        <time>2011-06-10T16:50:54</time>
      </trkpt>
      <trkpt lat="46.72509" lon="5.65965">
        <ele>495</ele>
        <time>2011-06-10T16:51:04</time>
      </trkpt>
      <trkpt lat="46.7251" lon="5.65981">
        <ele>495</ele>
        <time>2011-06-10T16:51:16</time>
      </trkpt>
      <trkpt lat="46.72512" lon="5.65996">
        <ele>495</ele>
        <time>2011-06-10T16:51:26</time>
      </trkpt>
      <trkpt lat="46.72515" lon="5.66011">
        <ele>495</ele>
        <time>2011-06-10T16:51:36</time>
      </trkpt>
      <trkpt lat="46.72519" lon="5.66027">
        <ele>495</ele>
        <time>2011-06-10T16:51:45</time>
      </trkpt>
      <trkpt lat="46.72521" lon="5.66043">
        <ele>495</ele>
        <time>2011-06-10T16:51:55</time>
      </trkpt>
      <trkpt lat="46.7252" lon="5.66057">
        <ele>495</ele>
        <time>2011-06-10T16:52:04</time>
      </trkpt>
      <trkpt lat="46.72521" lon="5.66073">
        <ele>495</ele>
        <time>2011-06-10T16:52:14</time>
      </trkpt>
      <trkpt lat="46.72521" lon="5.66088">
        <ele>497</ele>
        <time>2011-06-10T16:52:23</time>
      </trkpt>
      <trkpt lat="46.72521" lon="5.66102">
        <ele>497</ele>
        <time>2011-06-10T16:52:33</time>
      </trkpt>
      <trkpt lat="46.7252" lon="5.66117">
        <ele>497</ele>
        <time>2011-06-10T16:52:43</time>
      </trkpt>
      <trkpt lat="46.72521" lon="5.66134">
        <ele>498</ele>
        <time>2011-06-10T16:52:53</time>
      </trkpt>
      <trkpt lat="46.72523" lon="5.66145">
        <ele>498</ele>
        <time>2011-06-10T16:53:07</time>
      </trkpt>
      <trkpt lat="46.72529" lon="5.66157">
        <ele>498</ele>
        <time>2011-06-10T16:53:40</time>
      </trkpt>
      <trkpt lat="46.72518" lon="5.66156">
        <ele>498</ele>
        <time>2011-06-10T16:54:25</time>
      </trkpt>
      <trkpt lat="46.72534" lon="5.6616">
        <ele>498</ele>
        <time>2011-06-10T16:54:46</time>
      </trkpt>
      <trkpt lat="46.72534" lon="5.6616">
        <ele>498</ele>
        <time>2011-06-10T16:55:09</time>
      </trkpt>
      <trkpt lat="46.72546" lon="5.66171">
        <ele>500</ele>
        <time>2011-06-10T16:55:16</time>
      </trkpt>
      <trkpt lat="46.72555" lon="5.66186">
        <ele>501</ele>
        <time>2011-06-10T16:55:23</time>
      </trkpt>
      <trkpt lat="46.72555" lon="5.66186">
        <ele>501</ele>
        <time>2011-06-10T16:55:45</time>
      </trkpt>
      <trkpt lat="46.7256" lon="5.66196">
        <ele>501</ele>
        <time>2011-06-10T16:55:46</time>
      </trkpt>
      <trkpt lat="46.7256" lon="5.66196">
        <ele>501</ele>
        <time>2011-06-10T16:56:40</time>
      </trkpt>
      <trkpt lat="46.72566" lon="5.66207">
        <ele>501</ele>
        <time>2011-06-10T16:56:42</time>
      </trkpt>
      <trkpt lat="46.72566" lon="5.66207">
        <ele>501</ele>
        <time>2011-06-10T16:57:12</time>
      </trkpt>
      <trkpt lat="46.7257" lon="5.66221">
        <ele>501</ele>
        <time>2011-06-10T16:57:15</time>
      </trkpt>
      <trkpt lat="46.7257" lon="5.66221">
        <ele>501</ele>
        <time>2011-06-10T16:57:57</time>
      </trkpt>
      <trkpt lat="46.72572" lon="5.66235">
        <ele>501</ele>
        <time>2011-06-10T16:57:59</time>
      </trkpt>
      <trkpt lat="46.72572" lon="5.66235">
        <ele>501</ele>
        <time>2011-06-10T16:58:25</time>
      </trkpt>
      <trkpt lat="46.7257" lon="5.66252">
        <ele>500</ele>
        <time>2011-06-10T16:58:33</time>
      </trkpt>
      <trkpt lat="46.72567" lon="5.66265">
        <ele>501</ele>
        <time>2011-06-10T16:58:47</time>
      </trkpt>
      <trkpt lat="46.72565" lon="5.66282">
        <ele>500</ele>
        <time>2011-06-10T16:58:59</time>
      </trkpt>
      <trkpt lat="46.72566" lon="5.66297">
        <ele>500</ele>
        <time>2011-06-10T16:59:11</time>
      </trkpt>
      <trkpt lat="46.7257" lon="5.6631">
        <ele>499</ele>
        <time>2011-06-10T16:59:23</time>
      </trkpt>
      <trkpt lat="46.72575" lon="5.66324">
        <ele>498</ele>
        <time>2011-06-10T16:59:36</time>
      </trkpt>
      <trkpt lat="46.72582" lon="5.66338">
        <ele>496</ele>
        <time>2011-06-10T16:59:49</time>
      </trkpt>
      <trkpt lat="46.72587" lon="5.6635">
        <ele>497</ele>
        <time>2011-06-10T17:00:03</time>
      </trkpt>
      <trkpt lat="46.72596" lon="5.66365">
        <ele>497</ele>
        <time>2011-06-10T17:00:16</time>
      </trkpt>
      <trkpt lat="46.72606" lon="5.6638">
        <ele>497</ele>
        <time>2011-06-10T17:00:23</time>
      </trkpt>
      <trkpt lat="46.72606" lon="5.6638">
        <ele>497</ele>
        <time>2011-06-10T17:00:53</time>
      </trkpt>
      <trkpt lat="46.72619" lon="5.66385">
        <ele>498</ele>
        <time>2011-06-10T17:00:59</time>
      </trkpt>
      <trkpt lat="46.72631" lon="5.66392">
        <ele>498</ele>
        <time>2011-06-10T17:01:11</time>
      </trkpt>
      <trkpt lat="46.72644" lon="5.66399">
        <ele>498</ele>
        <time>2011-06-10T17:01:23</time>
      </trkpt>
      <trkpt lat="46.72658" lon="5.66403">
        <ele>499</ele>
        <time>2011-06-10T17:01:35</time>
      </trkpt>
      <trkpt lat="46.72672" lon="5.66398">
        <ele>500</ele>
        <time>2011-06-10T17:01:49</time>
      </trkpt>
      <trkpt lat="46.7268" lon="5.66389">
        <ele>500</ele>
        <time>2011-06-10T17:01:58</time>
      </trkpt>
      <trkpt lat="46.7268" lon="5.66389">
        <ele>500</ele>
        <time>2011-06-10T17:02:24</time>
      </trkpt>
      <trkpt lat="46.72689" lon="5.66376">
        <ele>500</ele>
        <time>2011-06-10T17:02:31</time>
      </trkpt>
      <trkpt lat="46.727" lon="5.66364">
        <ele>500</ele>
        <time>2011-06-10T17:02:41</time>
      </trkpt>
      <trkpt lat="46.72709" lon="5.66351">
        <ele>500</ele>
        <time>2011-06-10T17:02:51</time>
      </trkpt>
      <trkpt lat="46.72717" lon="5.66342">
        <ele>500</ele>
        <time>2011-06-10T17:03:03</time>
      </trkpt>
      <trkpt lat="46.72726" lon="5.66329">
        <ele>500</ele>
        <time>2011-06-10T17:03:18</time>
      </trkpt>
      <trkpt lat="46.72736" lon="5.66317">
        <ele>500</ele>
        <time>2011-06-10T17:03:29</time>
      </trkpt>
      <trkpt lat="46.72747" lon="5.66306">
        <ele>499</ele>
        <time>2011-06-10T17:03:38</time>
      </trkpt>
      <trkpt lat="46.72756" lon="5.66296">
        <ele>499</ele>
        <time>2011-06-10T17:03:51</time>
      </trkpt>
      <trkpt lat="46.72765" lon="5.66283">
        <ele>499</ele>
        <time>2011-06-10T17:04:05</time>
      </trkpt>
      <trkpt lat="46.72775" lon="5.66272">
        <ele>498</ele>
        <time>2011-06-10T17:04:16</time>
      </trkpt>
      <trkpt lat="46.72787" lon="5.66264">
        <ele>499</ele>
        <time>2011-06-10T17:04:26</time>
      </trkpt>
      <trkpt lat="46.728" lon="5.66258">
        <ele>499</ele>
        <time>2011-06-10T17:04:37</time>
      </trkpt>
      <trkpt lat="46.72815" lon="5.66256">
        <ele>500</ele>
        <time>2011-06-10T17:04:47</time>
      </trkpt>
      <trkpt lat="46.72829" lon="5.66252">
        <ele>501</ele>
        <time>2011-06-10T17:04:57</time>
      </trkpt>
      <trkpt lat="46.72844" lon="5.66245">
        <ele>499</ele>
        <time>2011-06-10T17:05:08</time>
      </trkpt>
      <trkpt lat="46.72858" lon="5.66237">
        <ele>498</ele>
        <time>2011-06-10T17:05:18</time>
      </trkpt>
      <trkpt lat="46.72869" lon="5.66227">
        <ele>498</ele>
        <time>2011-06-10T17:05:29</time>
      </trkpt>
      <trkpt lat="46.72877" lon="5.66214">
        <ele>497</ele>
        <time>2011-06-10T17:05:39</time>
      </trkpt>
      <trkpt lat="46.72887" lon="5.66201">
        <ele>497</ele>
        <time>2011-06-10T17:05:49</time>
      </trkpt>
      <trkpt lat="46.72898" lon="5.662">
        <ele>497</ele>
        <time>2011-06-10T17:05:57</time>
      </trkpt>
      <trkpt lat="46.72898" lon="5.662">
        <ele>497</ele>
        <time>2011-06-10T17:06:49</time>
      </trkpt>
      <trkpt lat="46.7288" lon="5.66217">
        <ele>497</ele>
        <time>2011-06-10T17:06:55</time>
      </trkpt>
      <trkpt lat="46.72871" lon="5.66233">
        <ele>498</ele>
        <time>2011-06-10T17:07:02</time>
      </trkpt>
      <trkpt lat="46.72871" lon="5.66233">
        <ele>498</ele>
        <time>2011-06-10T17:07:54</time>
      </trkpt>
      <trkpt lat="46.7286" lon="5.66243">
        <ele>498</ele>
        <time>2011-06-10T17:07:55</time>
      </trkpt>
      <trkpt lat="46.7286" lon="5.66243">
        <ele>498</ele>
        <time>2011-06-10T17:08:29</time>
      </trkpt>
      <trkpt lat="46.72852" lon="5.6625">
        <ele>499</ele>
        <time>2011-06-10T17:08:30</time>
      </trkpt>
      <trkpt lat="46.72852" lon="5.6625">
        <ele>499</ele>
        <time>2011-06-10T17:08:50</time>
      </trkpt>
      <trkpt lat="46.72837" lon="5.66256">
        <ele>500</ele>
        <time>2011-06-10T17:08:58</time>
      </trkpt>
      <trkpt lat="46.72822" lon="5.66259">
        <ele>500</ele>
        <time>2011-06-10T17:09:11</time>
      </trkpt>
      <trkpt lat="46.72808" lon="5.66264">
        <ele>499</ele>
        <time>2011-06-10T17:09:22</time>
      </trkpt>
      <trkpt lat="46.72793" lon="5.6627">
        <ele>499</ele>
        <time>2011-06-10T17:09:33</time>
      </trkpt>
      <trkpt lat="46.72782" lon="5.66278">
        <ele>499</ele>
        <time>2011-06-10T17:09:47</time>
      </trkpt>
      <trkpt lat="46.72771" lon="5.6629">
        <ele>499</ele>
        <time>2011-06-10T17:10:01</time>
      </trkpt>
      <trkpt lat="46.72761" lon="5.66302">
        <ele>499</ele>
        <time>2011-06-10T17:10:12</time>
      </trkpt>
      <trkpt lat="46.72752" lon="5.66313">
        <ele>500</ele>
        <time>2011-06-10T17:10:23</time>
      </trkpt>
      <trkpt lat="46.72742" lon="5.66325">
        <ele>500</ele>
        <time>2011-06-10T17:10:33</time>
      </trkpt>
      <trkpt lat="46.72731" lon="5.66335">
        <ele>501</ele>
        <time>2011-06-10T17:10:43</time>
      </trkpt>
      <trkpt lat="46.72721" lon="5.66346">
        <ele>500</ele>
        <time>2011-06-10T17:10:53</time>
      </trkpt>
      <trkpt lat="46.7271" lon="5.66358">
        <ele>500</ele>
        <time>2011-06-10T17:11:04</time>
      </trkpt>
      <trkpt lat="46.72702" lon="5.66371">
        <ele>500</ele>
        <time>2011-06-10T17:11:14</time>
      </trkpt>
      <trkpt lat="46.72693" lon="5.66384">
        <ele>500</ele>
        <time>2011-06-10T17:11:23</time>
      </trkpt>
      <trkpt lat="46.72684" lon="5.66396">
        <ele>500</ele>
        <time>2011-06-10T17:11:31</time>
      </trkpt>
      <trkpt lat="46.72669" lon="5.66406">
        <ele>499</ele>
        <time>2011-06-10T17:11:37</time>
      </trkpt>
      <trkpt lat="46.72669" lon="5.66406">
        <ele>499</ele>
        <time>2011-06-10T17:12:07</time>
      </trkpt>
      <trkpt lat="46.72656" lon="5.66405">
        <ele>499</ele>
        <time>2011-06-10T17:12:14</time>
      </trkpt>
      <trkpt lat="46.72641" lon="5.66402">
        <ele>498</ele>
        <time>2011-06-10T17:12:27</time>
      </trkpt>
      <trkpt lat="46.72628" lon="5.66395">
        <ele>498</ele>
        <time>2011-06-10T17:12:38</time>
      </trkpt>
      <trkpt lat="46.72616" lon="5.66386">
        <ele>498</ele>
        <time>2011-06-10T17:12:47</time>
      </trkpt>
      <trkpt lat="46.72607" lon="5.66375">
        <ele>497</ele>
        <time>2011-06-10T17:12:56</time>
      </trkpt>
      <trkpt lat="46.72598" lon="5.66363">
        <ele>497</ele>
        <time>2011-06-10T17:13:05</time>
      </trkpt>
      <trkpt lat="46.72592" lon="5.66348">
        <ele>497</ele>
        <time>2011-06-10T17:13:15</time>
      </trkpt>
      <trkpt lat="46.72584" lon="5.66335">
        <ele>496</ele>
        <time>2011-06-10T17:13:25</time>
      </trkpt>
      <trkpt lat="46.72577" lon="5.66321">
        <ele>498</ele>
        <time>2011-06-10T17:13:34</time>
      </trkpt>
      <trkpt lat="46.72572" lon="5.66308">
        <ele>499</ele>
        <time>2011-06-10T17:13:43</time>
      </trkpt>
      <trkpt lat="46.7257" lon="5.66294">
        <ele>500</ele>
        <time>2011-06-10T17:13:51</time>
      </trkpt>
      <trkpt lat="46.7257" lon="5.66278">
        <ele>500</ele>
        <time>2011-06-10T17:13:59</time>
      </trkpt>
      <trkpt lat="46.72571" lon="5.66263">
        <ele>500</ele>
        <time>2011-06-10T17:14:07</time>
      </trkpt>
      <trkpt lat="46.72571" lon="5.66246">
        <ele>501</ele>
        <time>2011-06-10T17:14:17</time>
      </trkpt>
      <trkpt lat="46.72571" lon="5.66231">
        <ele>501</ele>
        <time>2011-06-10T17:14:28</time>
      </trkpt>
      <trkpt lat="46.72568" lon="5.66216">
        <ele>501</ele>
        <time>2011-06-10T17:14:38</time>
      </trkpt>
      <trkpt lat="46.7256" lon="5.66203">
        <ele>501</ele>
        <time>2011-06-10T17:14:47</time>
      </trkpt>
      <trkpt lat="46.72554" lon="5.66188">
        <ele>501</ele>
        <time>2011-06-10T17:14:55</time>
      </trkpt>
      <trkpt lat="46.72545" lon="5.66175">
        <ele>501</ele>
        <time>2011-06-10T17:15:03</time>
      </trkpt>
      <trkpt lat="46.72534" lon="5.66165">
        <ele>498</ele>
        <time>2011-06-10T17:15:13</time>
      </trkpt>
      <trkpt lat="46.72522" lon="5.66156">
        <ele>498</ele>
        <time>2011-06-10T17:15:25</time>
      </trkpt>
      <trkpt lat="46.7251" lon="5.66144">
        <ele>498</ele>
        <time>2011-06-10T17:15:35</time>
      </trkpt>
      <trkpt lat="46.72498" lon="5.66135">
        <ele>498</ele>
        <time>2011-06-10T17:15:44</time>
      </trkpt>
      <trkpt lat="46.72486" lon="5.66127">
        <ele>498</ele>
        <time>2011-06-10T17:15:54</time>
      </trkpt>
      <trkpt lat="46.72474" lon="5.66118">
        <ele>498</ele>
        <time>2011-06-10T17:16:04</time>
      </trkpt>
      <trkpt lat="46.72463" lon="5.66108">
        <ele>497</ele>
        <time>2011-06-10T17:16:14</time>
      </trkpt>
      <trkpt lat="46.72452" lon="5.66097">
        <ele>497</ele>
        <time>2011-06-10T17:16:23</time>
      </trkpt>
      <trkpt lat="46.72443" lon="5.66086">
        <ele>496</ele>
        <time>2011-06-10T17:16:32</time>
      </trkpt>
      <trkpt lat="46.72433" lon="5.66075">
        <ele>495</ele>
        <time>2011-06-10T17:16:42</time>
      </trkpt>
      <trkpt lat="46.72422" lon="5.66065">
        <ele>495</ele>
        <time>2011-06-10T17:16:52</time>
      </trkpt>
      <trkpt lat="46.72411" lon="5.66053">
        <ele>495</ele>
        <time>2011-06-10T17:17:03</time>
      </trkpt>
      <trkpt lat="46.724" lon="5.66043">
        <ele>495</ele>
        <time>2011-06-10T17:17:14</time>
      </trkpt>
      <trkpt lat="46.7239" lon="5.66033">
        <ele>495</ele>
        <time>2011-06-10T17:17:25</time>
      </trkpt>
      <trkpt lat="46.7238" lon="5.6602">
        <ele>495</ele>
        <time>2011-06-10T17:17:34</time>
      </trkpt>
      <trkpt lat="46.72371" lon="5.66009">
        <ele>495</ele>
        <time>2011-06-10T17:17:44</time>
      </trkpt>
      <trkpt lat="46.7236" lon="5.66">
        <ele>496</ele>
        <time>2011-06-10T17:17:54</time>
      </trkpt>
      <trkpt lat="46.72348" lon="5.65991">
        <ele>496</ele>
        <time>2011-06-10T17:18:05</time>
      </trkpt>
      <trkpt lat="46.72334" lon="5.65986">
        <ele>496</ele>
        <time>2011-06-10T17:18:16</time>
      </trkpt>
      <trkpt lat="46.7232" lon="5.65982">
        <ele>496</ele>
        <time>2011-06-10T17:18:28</time>
      </trkpt>
      <trkpt lat="46.72305" lon="5.65977">
        <ele>496</ele>
        <time>2011-06-10T17:18:39</time>
      </trkpt>
      <trkpt lat="46.72292" lon="5.65971">
        <ele>497</ele>
        <time>2011-06-10T17:18:50</time>
      </trkpt>
      <trkpt lat="46.7228" lon="5.65965">
        <ele>497</ele>
        <time>2011-06-10T17:19:01</time>
      </trkpt>
      <trkpt lat="46.72266" lon="5.65957">
        <ele>497</ele>
        <time>2011-06-10T17:19:15</time>
      </trkpt>
      <trkpt lat="46.72254" lon="5.6595">
        <ele>497</ele>
        <time>2011-06-10T17:19:28</time>
      </trkpt>
      <trkpt lat="46.72241" lon="5.65942">
        <ele>498</ele>
        <time>2011-06-10T17:19:39</time>
      </trkpt>
      <trkpt lat="46.72229" lon="5.65933">
        <ele>499</ele>
        <time>2011-06-10T17:19:50</time>
      </trkpt>
      <trkpt lat="46.72218" lon="5.65924">
        <ele>499</ele>
        <time>2011-06-10T17:20:00</time>
      </trkpt>
      <trkpt lat="46.72206" lon="5.65913">
        <ele>500</ele>
        <time>2011-06-10T17:20:11</time>
      </trkpt>
      <trkpt lat="46.72196" lon="5.65903">
        <ele>500</ele>
        <time>2011-06-10T17:20:22</time>
      </trkpt>
      <trkpt lat="46.72186" lon="5.65892">
        <ele>500</ele>
        <time>2011-06-10T17:20:33</time>
      </trkpt>
      <trkpt lat="46.72178" lon="5.65878">
        <ele>500</ele>
        <time>2011-06-10T17:20:42</time>
      </trkpt>
      <trkpt lat="46.72173" lon="5.65863">
        <ele>500</ele>
        <time>2011-06-10T17:20:51</time>
      </trkpt>
      <trkpt lat="46.72168" lon="5.65848">
        <ele>501</ele>
        <time>2011-06-10T17:21:00</time>
      </trkpt>
      <trkpt lat="46.72163" lon="5.65833">
        <ele>501</ele>
        <time>2011-06-10T17:21:09</time>
      </trkpt>
      <trkpt lat="46.72158" lon="5.65818">
        <ele>501</ele>
        <time>2011-06-10T17:21:18</time>
      </trkpt>
      <trkpt lat="46.72153" lon="5.65803">
        <ele>501</ele>
        <time>2011-06-10T17:21:27</time>
      </trkpt>
      <trkpt lat="46.72147" lon="5.65788">
        <ele>501</ele>
        <time>2011-06-10T17:21:36</time>
      </trkpt>
      <trkpt lat="46.72142" lon="5.65773">
        <ele>501</ele>
        <time>2011-06-10T17:21:45</time>
      </trkpt>
      <trkpt lat="46.72137" lon="5.65758">
        <ele>501</ele>
        <time>2011-06-10T17:21:54</time>
      </trkpt>
      <trkpt lat="46.72133" lon="5.65744">
        <ele>500</ele>
        <time>2011-06-10T17:22:02</time>
      </trkpt>
      <trkpt lat="46.7213" lon="5.6573">
        <ele>500</ele>
        <time>2011-06-10T17:22:10</time>
      </trkpt>
      <trkpt lat="46.72127" lon="5.65715">
        <ele>500</ele>
        <time>2011-06-10T17:22:18</time>
      </trkpt>
      <trkpt lat="46.72123" lon="5.65701">
        <ele>500</ele>
        <time>2011-06-10T17:22:26</time>
      </trkpt>
      <trkpt lat="46.7212" lon="5.65686">
        <ele>500</ele>
        <time>2011-06-10T17:22:34</time>
      </trkpt>
      <trkpt lat="46.72118" lon="5.65672">
        <ele>499</ele>
        <time>2011-06-10T17:22:43</time>
      </trkpt>
      <trkpt lat="46.72116" lon="5.65656">
        <ele>499</ele>
        <time>2011-06-10T17:22:50</time>
      </trkpt>
      <trkpt lat="46.72116" lon="5.65641">
        <ele>499</ele>
        <time>2011-06-10T17:22:58</time>
      </trkpt>
      <trkpt lat="46.72116" lon="5.65626">
        <ele>498</ele>
        <time>2011-06-10T17:23:06</time>
      </trkpt>
      <trkpt lat="46.72115" lon="5.65612">
        <ele>498</ele>
        <time>2011-06-10T17:23:15</time>
      </trkpt>
      <trkpt lat="46.72113" lon="5.65597">
        <ele>498</ele>
        <time>2011-06-10T17:23:22</time>
      </trkpt>
      <trkpt lat="46.72112" lon="5.65582">
        <ele>497</ele>
        <time>2011-06-10T17:23:30</time>
      </trkpt>
      <trkpt lat="46.72111" lon="5.65566">
        <ele>497</ele>
        <time>2011-06-10T17:23:39</time>
      </trkpt>
      <trkpt lat="46.7211" lon="5.65551">
        <ele>497</ele>
        <time>2011-06-10T17:23:46</time>
      </trkpt>
      <trkpt lat="46.72108" lon="5.65536">
        <ele>497</ele>
        <time>2011-06-10T17:23:55</time>
      </trkpt>
      <trkpt lat="46.72105" lon="5.6552">
        <ele>497</ele>
        <time>2011-06-10T17:24:06</time>
      </trkpt>
      <trkpt lat="46.72102" lon="5.65507">
        <ele>497</ele>
        <time>2011-06-10T17:24:19</time>
      </trkpt>
      <trkpt lat="46.721" lon="5.65494">
        <ele>496</ele>
        <time>2011-06-10T17:24:33</time>
      </trkpt>
      <trkpt lat="46.72096" lon="5.65476">
        <ele>496</ele>
        <time>2011-06-10T17:24:45</time>
      </trkpt>
      <trkpt lat="46.72093" lon="5.65461">
        <ele>496</ele>
        <time>2011-06-10T17:24:53</time>
      </trkpt>
      <trkpt lat="46.72089" lon="5.65447">
        <ele>495</ele>
        <time>2011-06-10T17:25:01</time>
      </trkpt>
      <trkpt lat="46.72083" lon="5.65434">
        <ele>496</ele>
        <time>2011-06-10T17:25:10</time>
      </trkpt>
      <trkpt lat="46.72071" lon="5.65425">
        <ele>495</ele>
        <time>2011-06-10T17:25:21</time>
      </trkpt>
      <trkpt lat="46.72057" lon="5.65424">
        <ele>496</ele>
        <time>2011-06-10T17:25:35</time>
      </trkpt>
      <trkpt lat="46.72045" lon="5.65429">
        <ele>496</ele>
        <time>2011-06-10T17:25:53</time>
      </trkpt>
      <trkpt lat="46.72031" lon="5.65437">
        <ele>496</ele>
        <time>2011-06-10T17:26:08</time>
      </trkpt>
      <trkpt lat="46.72018" lon="5.65444">
        <ele>496</ele>
        <time>2011-06-10T17:26:19</time>
      </trkpt>
      <trkpt lat="46.72006" lon="5.65452">
        <ele>496</ele>
        <time>2011-06-10T17:26:30</time>
      </trkpt>
      <trkpt lat="46.71997" lon="5.65466">
        <ele>496</ele>
        <time>2011-06-10T17:26:40</time>
      </trkpt>
      <trkpt lat="46.71992" lon="5.6548">
        <ele>496</ele>
        <time>2011-06-10T17:26:49</time>
      </trkpt>
      <trkpt lat="46.71987" lon="5.65494">
        <ele>496</ele>
        <time>2011-06-10T17:26:58</time>
      </trkpt>
      <trkpt lat="46.71975" lon="5.655">
        <ele>496</ele>
        <time>2011-06-10T17:27:08</time>
      </trkpt>
      <trkpt lat="46.71965" lon="5.65489">
        <ele>496</ele>
        <time>2011-06-10T17:27:18</time>
      </trkpt>
      <trkpt lat="46.71957" lon="5.65476">
        <ele>496</ele>
        <time>2011-06-10T17:27:28</time>
      </trkpt>
      <trkpt lat="46.71948" lon="5.65463">
        <ele>496</ele>
        <time>2011-06-10T17:27:38</time>
      </trkpt>
      <trkpt lat="46.7194" lon="5.65451">
        <ele>496</ele>
        <time>2011-06-10T17:27:48</time>
      </trkpt>
      <trkpt lat="46.71931" lon="5.65438">
        <ele>496</ele>
        <time>2011-06-10T17:27:59</time>
      </trkpt>
      <trkpt lat="46.71922" lon="5.65426">
        <ele>496</ele>
        <time>2011-06-10T17:28:08</time>
      </trkpt>
      <trkpt lat="46.71914" lon="5.65414">
        <ele>496</ele>
        <time>2011-06-10T17:28:17</time>
      </trkpt>
      <trkpt lat="46.71905" lon="5.65402">
        <ele>497</ele>
        <time>2011-06-10T17:28:26</time>
      </trkpt>
      <trkpt lat="46.71896" lon="5.6539">
        <ele>497</ele>
        <time>2011-06-10T17:28:36</time>
      </trkpt>
      <trkpt lat="46.71886" lon="5.65379">
        <ele>497</ele>
        <time>2011-06-10T17:28:46</time>
      </trkpt>
      <trkpt lat="46.71877" lon="5.65367">
        <ele>497</ele>
        <time>2011-06-10T17:28:56</time>
      </trkpt>
      <trkpt lat="46.71867" lon="5.65357">
        <ele>497</ele>
        <time>2011-06-10T17:29:06</time>
      </trkpt>
      <trkpt lat="46.71857" lon="5.65346">
        <ele>497</ele>
        <time>2011-06-10T17:29:17</time>
      </trkpt>
      <trkpt lat="46.71845" lon="5.65335">
        <ele>497</ele>
        <time>2011-06-10T17:29:28</time>
      </trkpt>
      <trkpt lat="46.71832" lon="5.65327">
        <ele>497</ele>
        <time>2011-06-10T17:29:38</time>
      </trkpt>
      <trkpt lat="46.71819" lon="5.65321">
        <ele>497</ele>
        <time>2011-06-10T17:29:49</time>
      </trkpt>
      <trkpt lat="46.71806" lon="5.65313">
        <ele>497</ele>
        <time>2011-06-10T17:30:00</time>
      </trkpt>
      <trkpt lat="46.71794" lon="5.65304">
        <ele>497</ele>
        <time>2011-06-10T17:30:10</time>
      </trkpt>
      <trkpt lat="46.71786" lon="5.65292">
        <ele>496</ele>
        <time>2011-06-10T17:30:19</time>
      </trkpt>
      <trkpt lat="46.71781" lon="5.65278">
        <ele>496</ele>
        <time>2011-06-10T17:30:26</time>
      </trkpt>
      <trkpt lat="46.71779" lon="5.65263">
        <ele>496</ele>
        <time>2011-06-10T17:30:34</time>
      </trkpt>
      <trkpt lat="46.71777" lon="5.65248">
        <ele>496</ele>
        <time>2011-06-10T17:30:42</time>
      </trkpt>
      <trkpt lat="46.71777" lon="5.65232">
        <ele>496</ele>
        <time>2011-06-10T17:30:50</time>
      </trkpt>
      <trkpt lat="46.71777" lon="5.65218">
        <ele>496</ele>
        <time>2011-06-10T17:30:59</time>
      </trkpt>
      <trkpt lat="46.71779" lon="5.65203">
        <ele>496</ele>
        <time>2011-06-10T17:31:07</time>
      </trkpt>
      <trkpt lat="46.71779" lon="5.65187">
        <ele>495</ele>
        <time>2011-06-10T17:31:16</time>
      </trkpt>
      <trkpt lat="46.71779" lon="5.65172">
        <ele>495</ele>
        <time>2011-06-10T17:31:25</time>
      </trkpt>
      <trkpt lat="46.7178" lon="5.65157">
        <ele>495</ele>
        <time>2011-06-10T17:31:34</time>
      </trkpt>
      <trkpt lat="46.71779" lon="5.65143">
        <ele>495</ele>
        <time>2011-06-10T17:31:42</time>
      </trkpt>
      <trkpt lat="46.71779" lon="5.65128">
        <ele>495</ele>
        <time>2011-06-10T17:31:47</time>
      </trkpt>
      <trkpt lat="46.71779" lon="5.65128">
        <ele>495</ele>
        <time>2011-06-10T17:32:55</time>
      </trkpt>
      <trkpt lat="46.71777" lon="5.65113">
        <ele>495</ele>
        <time>2011-06-10T17:33:03</time>
      </trkpt>
      <trkpt lat="46.71775" lon="5.65099">
        <ele>495</ele>
        <time>2011-06-10T17:33:18</time>
      </trkpt>
      <trkpt lat="46.7177" lon="5.65084">
        <ele>495</ele>
        <time>2011-06-10T17:33:31</time>
      </trkpt>
      <trkpt lat="46.71761" lon="5.65073">
        <ele>494</ele>
        <time>2011-06-10T17:33:44</time>
      </trkpt>
      <trkpt lat="46.71755" lon="5.65066">
        <ele>494</ele>
        <time>2011-06-10T17:33:53</time>
      </trkpt>
      <trkpt lat="46.71755" lon="5.65066">
        <ele>494</ele>
        <time>2011-06-10T17:35:15</time>
      </trkpt>
      <trkpt lat="46.71745" lon="5.6505">
        <ele>494</ele>
        <time>2011-06-10T17:35:21</time>
      </trkpt>
      <trkpt lat="46.71736" lon="5.65037">
        <ele>494</ele>
        <time>2011-06-10T17:35:33</time>
      </trkpt>
      <trkpt lat="46.71729" lon="5.65023">
        <ele>494</ele>
        <time>2011-06-10T17:35:42</time>
      </trkpt>
      <trkpt lat="46.71723" lon="5.65009">
        <ele>494</ele>
        <time>2011-06-10T17:35:51</time>
      </trkpt>
      <trkpt lat="46.71719" lon="5.64994">
        <ele>493</ele>
        <time>2011-06-10T17:35:59</time>
      </trkpt>
      <trkpt lat="46.71715" lon="5.64979">
        <ele>493</ele>
        <time>2011-06-10T17:36:08</time>
      </trkpt>
      <trkpt lat="46.71712" lon="5.64963">
        <ele>493</ele>
        <time>2011-06-10T17:36:17</time>
      </trkpt>
      <trkpt lat="46.71708" lon="5.64949">
        <ele>493</ele>
        <time>2011-06-10T17:36:26</time>
      </trkpt>
      <trkpt lat="46.71704" lon="5.64936">
        <ele>494</ele>
        <time>2011-06-10T17:36:36</time>
      </trkpt>
      <trkpt lat="46.71702" lon="5.64921">
        <ele>494</ele>
        <time>2011-06-10T17:36:44</time>
      </trkpt>
      <trkpt lat="46.71704" lon="5.64906">
        <ele>493</ele>
        <time>2011-06-10T17:36:51</time>
      </trkpt>
      <trkpt lat="46.71705" lon="5.64891">
        <ele>493</ele>
        <time>2011-06-10T17:36:59</time>
      </trkpt>
      <trkpt lat="46.71707" lon="5.64877">
        <ele>493</ele>
        <time>2011-06-10T17:37:07</time>
      </trkpt>
      <trkpt lat="46.7171" lon="5.64861">
        <ele>493</ele>
        <time>2011-06-10T17:37:15</time>
      </trkpt>
      <trkpt lat="46.71714" lon="5.64847">
        <ele>493</ele>
        <time>2011-06-10T17:37:25</time>
      </trkpt>
      <trkpt lat="46.71716" lon="5.64831">
        <ele>492</ele>
        <time>2011-06-10T17:37:36</time>
      </trkpt>
      <trkpt lat="46.71715" lon="5.64816">
        <ele>492</ele>
        <time>2011-06-10T17:37:45</time>
      </trkpt>
      <trkpt lat="46.71709" lon="5.64802">
        <ele>492</ele>
        <time>2011-06-10T17:37:54</time>
      </trkpt>
      <trkpt lat="46.717" lon="5.6479">
        <ele>492</ele>
        <time>2011-06-10T17:38:04</time>
      </trkpt>
      <trkpt lat="46.71688" lon="5.6478">
        <ele>492</ele>
        <time>2011-06-10T17:38:14</time>
      </trkpt>
      <trkpt lat="46.71676" lon="5.64772">
        <ele>492</ele>
        <time>2011-06-10T17:38:25</time>
      </trkpt>
      <trkpt lat="46.71663" lon="5.64762">
        <ele>491</ele>
        <time>2011-06-10T17:38:36</time>
      </trkpt>
      <trkpt lat="46.71651" lon="5.64753">
        <ele>492</ele>
        <time>2011-06-10T17:38:47</time>
      </trkpt>
      <trkpt lat="46.71638" lon="5.64743">
        <ele>491</ele>
        <time>2011-06-10T17:38:58</time>
      </trkpt>
      <trkpt lat="46.71628" lon="5.64733">
        <ele>492</ele>
        <time>2011-06-10T17:39:08</time>
      </trkpt>
      <trkpt lat="46.71617" lon="5.64722">
        <ele>492</ele>
        <time>2011-06-10T17:39:19</time>
      </trkpt>
      <trkpt lat="46.71604" lon="5.64716">
        <ele>492</ele>
        <time>2011-06-10T17:39:31</time>
      </trkpt>
      <trkpt lat="46.71589" lon="5.64712">
        <ele>492</ele>
        <time>2011-06-10T17:39:43</time>
      </trkpt>
      <trkpt lat="46.71575" lon="5.64709">
        <ele>493</ele>
        <time>2011-06-10T17:39:55</time>
      </trkpt>
      <trkpt lat="46.7156" lon="5.64705">
        <ele>493</ele>
        <time>2011-06-10T17:40:07</time>
      </trkpt>
      <trkpt lat="46.71546" lon="5.647">
        <ele>493</ele>
        <time>2011-06-10T17:40:19</time>
      </trkpt>
      <trkpt lat="46.71533" lon="5.64696">
        <ele>493</ele>
        <time>2011-06-10T17:40:33</time>
      </trkpt>
      <trkpt lat="46.71518" lon="5.64689">
        <ele>493</ele>
        <time>2011-06-10T17:40:48</time>
      </trkpt>
      <trkpt lat="46.71506" lon="5.6468">
        <ele>493</ele>
        <time>2011-06-10T17:41:05</time>
      </trkpt>
      <trkpt lat="46.71496" lon="5.6467">
        <ele>492</ele>
        <time>2011-06-10T17:41:18</time>
      </trkpt>
      <trkpt lat="46.71488" lon="5.64657">
        <ele>492</ele>
        <time>2011-06-10T17:41:28</time>
      </trkpt>
      <trkpt lat="46.71478" lon="5.64645">
        <ele>492</ele>
        <time>2011-06-10T17:41:38</time>
      </trkpt>
      <trkpt lat="46.71467" lon="5.64635">
        <ele>492</ele>
        <time>2011-06-10T17:41:51</time>
      </trkpt>
      <trkpt lat="46.71456" lon="5.64625">
        <ele>492</ele>
        <time>2011-06-10T17:42:04</time>
      </trkpt>
      <trkpt lat="46.71443" lon="5.64618">
        <ele>492</ele>
        <time>2011-06-10T17:42:16</time>
      </trkpt>
      <trkpt lat="46.71429" lon="5.64611">
        <ele>492</ele>
        <time>2011-06-10T17:42:27</time>
      </trkpt>
      <trkpt lat="46.71418" lon="5.64607">
        <ele>492</ele>
        <time>2011-06-10T17:42:42</time>
      </trkpt>
      <trkpt lat="46.71404" lon="5.64598">
        <ele>488</ele>
        <time>2011-06-10T17:42:57</time>
      </trkpt>
      <trkpt lat="46.71394" lon="5.64588">
        <ele>487</ele>
        <time>2011-06-10T17:43:14</time>
      </trkpt>
      <trkpt lat="46.71378" lon="5.6458">
        <ele>486</ele>
        <time>2011-06-10T17:43:26</time>
      </trkpt>
      <trkpt lat="46.71378" lon="5.6458">
        <ele>486</ele>
        <time>2011-06-10T17:43:49</time>
      </trkpt>
      <trkpt lat="46.71372" lon="5.64573">
        <ele>485</ele>
        <time>2011-06-10T17:43:59</time>
      </trkpt>
      <trkpt lat="46.7137" lon="5.64556">
        <ele>485</ele>
        <time>2011-06-10T17:44:15</time>
      </trkpt>
      <trkpt lat="46.71369" lon="5.6454">
        <ele>486</ele>
        <time>2011-06-10T17:44:27</time>
      </trkpt>
      <trkpt lat="46.71366" lon="5.64525">
        <ele>486</ele>
        <time>2011-06-10T17:44:38</time>
      </trkpt>
      <trkpt lat="46.71366" lon="5.6451">
        <ele>486</ele>
        <time>2011-06-10T17:44:44</time>
      </trkpt>
      <trkpt lat="46.71366" lon="5.6451">
        <ele>486</ele>
        <time>2011-06-10T17:45:04</time>
      </trkpt>
      <trkpt lat="46.71361" lon="5.64496">
        <ele>490</ele>
        <time>2011-06-10T17:45:12</time>
      </trkpt>
      <trkpt lat="46.71359" lon="5.64489">
        <ele>490</ele>
        <time>2011-06-10T17:46:05</time>
      </trkpt>
    </trkseg>
  </trk>
</gpx>